createdAt,value
2023-03-04T00:00:59.151Z,25.30
2023-03-04T00:03:26.185Z,24.60
2023-03-04T00:05:53.176Z,25.23
2023-03-04T00:08:20.058Z,28.00
2023-03-04T00:10:47.230Z,27.80
2023-03-04T00:13:14.358Z,28.07
2023-03-04T00:15:41.629Z,31.03
2023-03-04T00:18:08.512Z,30.47
2023-03-04T00:20:35.667Z,34.57
2023-03-04T00:23:02.131Z,36.33
2023-03-04T00:25:29.236Z,34.87
2023-03-04T00:27:56.289Z,33.23
2023-03-04T00:30:23.382Z,34.07
2023-03-04T00:32:50.144Z,32.67
2023-03-04T00:35:17.338Z,39.43
2023-03-04T00:37:43.760Z,31.37
2023-03-04T00:40:11.243Z,34.03
2023-03-04T00:42:38.467Z,36.43
2023-03-04T00:45:06.066Z,40.27
2023-03-04T00:47:32.914Z,38.60
2023-03-04T00:50:00.253Z,36.33
2023-03-04T00:52:27.093Z,35.40
2023-03-04T00:54:54.225Z,35.27
2023-03-04T00:57:21.484Z,37.20
2023-03-04T00:59:48.488Z,32.63
2023-03-04T01:02:14.999Z,40.27
2023-03-04T01:04:42.340Z,36.33
2023-03-04T01:07:09.502Z,35.67
2023-03-04T01:09:36.539Z,37.80
2023-03-04T01:12:04.011Z,35.67
2023-03-04T01:14:31.068Z,36.20
2023-03-04T01:16:58.307Z,36.77
2023-03-04T01:19:25.607Z,37.00
2023-03-04T01:21:52.780Z,32.93
2023-03-04T01:24:19.929Z,31.87
2023-03-04T01:26:46.877Z,32.43
2023-03-04T01:29:13.942Z,34.07
2023-03-04T01:31:40.868Z,33.80
2023-03-04T01:34:10.284Z,29.93
2023-03-04T01:36:37.528Z,34.20
2023-03-04T01:39:05.006Z,34.37
2023-03-04T01:41:32.346Z,31.67
2023-03-04T01:44:01.704Z,35.17
2023-03-04T01:46:29.612Z,33.50
2023-03-04T01:48:56.947Z,31.60
2023-03-04T01:51:24.249Z,29.83
2023-03-04T01:53:53.833Z,34.77
2023-03-04T01:56:30.574Z,31.10
2023-03-04T01:59:09.881Z,31.00
2023-03-04T02:01:37.506Z,32.50
2023-03-04T02:04:05.261Z,30.93
2023-03-04T02:06:32.595Z,35.17
2023-03-04T02:08:59.756Z,33.40
2023-03-04T02:11:27.255Z,32.23
2023-03-04T02:13:54.543Z,30.87
2023-03-04T02:16:21.531Z,30.93
2023-03-04T02:18:48.115Z,32.93
2023-03-04T02:21:15.050Z,31.50
2023-03-04T02:23:47.710Z,36.30
2023-03-04T02:26:22.016Z,27.73
2023-03-04T02:28:50.257Z,34.37
2023-03-04T02:31:25.073Z,33.97
2023-03-04T02:33:52.899Z,29.90
2023-03-04T02:36:20.144Z,33.73
2023-03-04T02:38:47.140Z,34.40
2023-03-04T02:41:15.760Z,30.37
2023-03-04T02:43:52.130Z,34.17
2023-03-04T02:46:19.073Z,29.40
2023-03-04T02:48:45.575Z,34.80
2023-03-04T02:51:12.610Z,35.97
2023-03-04T02:53:39.640Z,30.93
2023-03-04T02:56:06.573Z,31.47
2023-03-04T02:58:33.621Z,34.50
2023-03-04T03:01:00.617Z,34.97
2023-03-04T03:03:27.414Z,30.07
2023-03-04T03:05:54.465Z,34.83
2023-03-04T03:08:21.450Z,32.10
2023-03-04T03:10:48.415Z,33.20
2023-03-04T03:13:15.465Z,34.13
2023-03-04T03:15:42.772Z,29.13
2023-03-04T03:18:10.962Z,29.97
2023-03-04T03:20:38.162Z,27.53
2023-03-04T03:23:05.273Z,29.23
2023-03-04T03:25:31.749Z,35.87
2023-03-04T03:27:58.404Z,32.23
2023-03-04T03:30:25.462Z,31.67
2023-03-04T03:32:52.378Z,27.97
2023-03-04T03:35:19.456Z,30.47
2023-03-04T03:37:46.796Z,25.13
2023-03-04T03:40:14.267Z,26.80
2023-03-04T03:42:41.286Z,29.27
2023-03-04T03:45:08.601Z,33.13
2023-03-04T03:47:35.077Z,23.80
2023-03-04T03:50:01.578Z,28.37
2023-03-04T03:52:28.034Z,28.80
2023-03-04T03:54:54.999Z,25.50
2023-03-04T03:57:22.019Z,28.07
2023-03-04T03:59:49.133Z,28.20
2023-03-04T04:02:16.116Z,27.27
2023-03-04T04:04:42.983Z,30.00
2023-03-04T04:07:10.015Z,25.37
2023-03-04T04:09:37.056Z,29.93
2023-03-04T04:12:05.370Z,27.57
2023-03-04T04:14:32.582Z,25.83
2023-03-04T04:16:59.647Z,26.93
2023-03-04T04:19:26.453Z,27.87
2023-03-04T04:21:53.271Z,24.47
2023-03-04T04:24:20.512Z,27.47
2023-03-04T04:26:47.603Z,27.27
2023-03-04T04:29:15.102Z,26.47
2023-03-04T04:31:42.203Z,25.17
2023-03-04T04:34:09.426Z,22.53
2023-03-04T04:36:36.632Z,24.67
2023-03-04T04:39:03.696Z,26.70
2023-03-04T04:41:32.664Z,25.77
2023-03-04T04:43:59.806Z,22.07
2023-03-04T04:46:26.900Z,22.97
2023-03-04T04:48:53.926Z,22.97
2023-03-04T04:51:21.015Z,21.80
2023-03-04T04:53:48.683Z,23.97
2023-03-04T04:56:17.050Z,23.73
2023-03-04T04:58:44.373Z,25.77
2023-03-04T05:01:11.584Z,25.73
2023-03-04T05:03:38.996Z,25.13
2023-03-04T05:06:07.909Z,23.40
2023-03-04T05:08:34.953Z,27.27
2023-03-04T05:11:02.382Z,24.20
2023-03-04T05:13:29.095Z,24.90
2023-03-04T05:15:56.276Z,27.23
2023-03-04T05:18:24.129Z,20.73
2023-03-04T05:20:52.303Z,26.43
2023-03-04T05:23:19.462Z,23.57
2023-03-04T05:25:46.720Z,24.53
2023-03-04T05:28:13.282Z,26.10
2023-03-04T05:30:40.190Z,25.93
2023-03-04T05:33:09.398Z,25.43
2023-03-04T05:35:36.994Z,24.20
2023-03-04T05:38:04.120Z,27.53
2023-03-04T05:40:30.656Z,23.03
2023-03-04T05:42:57.850Z,22.13
2023-03-04T05:45:24.908Z,27.10
2023-03-04T05:47:52.271Z,24.10
2023-03-04T05:50:19.876Z,23.53
2023-03-04T05:52:46.360Z,23.97
2023-03-04T05:55:13.587Z,33.13
2023-03-04T05:57:41.757Z,26.40
2023-03-04T06:00:13.384Z,26.97
2023-03-04T06:02:41.337Z,25.43
2023-03-04T06:05:08.427Z,27.33
2023-03-04T06:07:35.318Z,27.07
2023-03-04T06:10:01.823Z,24.13
2023-03-04T06:12:28.963Z,28.07
2023-03-04T06:14:55.618Z,27.30
2023-03-04T06:17:22.656Z,26.23
2023-03-04T06:19:49.709Z,26.47
2023-03-04T06:22:16.595Z,27.23
2023-03-04T06:24:43.079Z,26.13
2023-03-04T06:27:09.586Z,25.83
2023-03-04T06:29:36.055Z,29.33
2023-03-04T06:32:03.185Z,24.17
2023-03-04T06:34:29.988Z,27.17
2023-03-04T06:36:56.407Z,27.80
2023-03-04T06:39:24.719Z,28.43
2023-03-04T06:41:51.291Z,32.83
2023-03-04T06:44:18.518Z,27.53
2023-03-04T06:46:45.138Z,25.53
2023-03-04T06:49:11.933Z,25.90
2023-03-04T06:51:39.227Z,28.53
2023-03-04T06:54:06.321Z,30.50
2023-03-04T06:56:32.863Z,26.03
2023-03-04T06:58:59.972Z,31.07
2023-03-04T07:01:27.875Z,29.10
2023-03-04T07:03:54.875Z,30.90
2023-03-04T07:06:23.199Z,31.60
2023-03-04T07:08:49.971Z,29.10
2023-03-04T07:11:16.470Z,25.60
2023-03-04T07:13:43.831Z,23.73
2023-03-04T07:16:16.101Z,26.97
2023-03-04T07:18:42.639Z,28.90
2023-03-04T07:21:09.304Z,28.77
2023-03-04T07:23:37.141Z,31.80
2023-03-04T07:26:04.094Z,26.60
2023-03-04T07:28:31.060Z,27.70
2023-03-04T07:30:58.064Z,28.33
2023-03-04T07:33:24.501Z,28.20
2023-03-04T07:35:58.384Z,29.40
2023-03-04T07:38:25.399Z,27.00
2023-03-04T07:40:56.560Z,29.03
2023-03-04T07:43:23.079Z,30.33
2023-03-04T07:45:49.579Z,34.43
2023-03-04T07:48:16.056Z,30.30
2023-03-04T07:50:43.425Z,26.87
2023-03-04T07:53:10.453Z,27.00
2023-03-04T07:55:36.928Z,27.30
2023-03-04T07:58:03.433Z,26.50
2023-03-04T08:00:29.871Z,29.20
2023-03-04T08:02:56.310Z,28.63
2023-03-04T08:05:22.775Z,28.37
2023-03-04T08:07:49.556Z,27.80
2023-03-04T08:10:16.157Z,29.53
2023-03-04T08:12:42.654Z,27.17
2023-03-04T08:15:09.381Z,28.90
2023-03-04T08:17:35.841Z,26.43
2023-03-04T08:20:02.759Z,27.73
2023-03-04T08:22:29.209Z,25.70
2023-03-04T08:24:56.001Z,29.30
2023-03-04T08:27:22.722Z,26.60
2023-03-04T08:29:49.120Z,29.40
2023-03-04T08:32:15.978Z,26.60
2023-03-04T08:34:42.903Z,23.60
2023-03-04T08:37:09.413Z,24.70
2023-03-04T08:39:36.483Z,24.83
2023-03-04T08:42:03.481Z,24.17
2023-03-04T08:44:29.919Z,28.10
2023-03-04T08:46:56.790Z,21.20
2023-03-04T08:49:23.371Z,27.10
2023-03-04T08:51:49.850Z,28.67
2023-03-04T08:54:16.571Z,25.97
2023-03-04T08:56:43.035Z,27.20
2023-03-04T08:59:09.565Z,28.10
2023-03-04T09:01:36.189Z,28.70
2023-03-04T09:04:02.750Z,29.07
2023-03-04T09:06:29.483Z,27.17
2023-03-04T09:08:55.997Z,32.77
2023-03-04T09:11:22.425Z,25.53
2023-03-04T09:13:50.810Z,29.80
2023-03-04T09:16:17.346Z,27.43
2023-03-04T09:18:44.067Z,27.50
2023-03-04T09:21:11.444Z,28.33
2023-03-04T09:23:38.407Z,28.30
2023-03-04T09:26:15.867Z,27.83
2023-03-04T09:28:42.682Z,25.90
2023-03-04T09:31:13.196Z,31.60
2023-03-04T09:33:41.631Z,29.10
2023-03-04T09:36:08.796Z,28.03
2023-03-04T09:38:35.651Z,30.77
2023-03-04T09:41:04.768Z,28.07
2023-03-04T09:43:32.681Z,32.57
2023-03-04T09:46:01.494Z,28.40
2023-03-04T09:48:29.281Z,28.97
2023-03-04T09:50:59.546Z,32.60
2023-03-04T09:53:35.168Z,29.77
2023-03-04T09:56:02.516Z,30.03
2023-03-04T09:58:48.782Z,30.60
2023-03-04T10:01:34.098Z,32.53
2023-03-04T10:04:00.531Z,31.47
2023-03-04T10:06:27.419Z,32.23
2023-03-04T10:08:56.041Z,33.83
2023-03-04T10:11:37.246Z,32.20
2023-03-04T10:14:08.488Z,36.47
2023-03-04T10:16:40.100Z,30.27
2023-03-04T10:19:15.511Z,32.10
2023-03-04T10:21:43.215Z,32.63
2023-03-04T10:24:14.790Z,28.63
2023-03-04T10:26:43.461Z,27.93
2023-03-04T10:29:15.512Z,34.70
2023-03-04T10:31:44.039Z,37.70
2023-03-04T10:34:11.860Z,29.90
2023-03-04T10:36:50.703Z,34.33
2023-03-04T10:39:17.431Z,35.23
2023-03-04T10:41:45.832Z,31.30
2023-03-04T10:44:16.635Z,29.53
2023-03-04T10:46:47.901Z,30.23
2023-03-04T10:49:18.461Z,34.47
2023-03-04T10:51:50.848Z,33.13
2023-03-04T10:54:17.800Z,35.73
2023-03-04T10:56:53.456Z,31.77
2023-03-04T10:59:36.226Z,31.07
2023-03-04T11:02:14.841Z,33.80
2023-03-04T11:04:41.741Z,29.93
2023-03-04T11:07:09.897Z,37.33
2023-03-04T11:09:36.875Z,30.87
2023-03-04T11:12:09.787Z,34.87
2023-03-04T11:14:46.534Z,33.20
2023-03-04T11:17:23.619Z,29.03
2023-03-04T11:19:56.000Z,31.60
2023-03-04T11:22:23.912Z,32.73
2023-03-04T11:25:13.480Z,27.87
2023-03-04T11:27:39.929Z,29.83
2023-03-04T11:30:22.418Z,26.27
2023-03-04T11:32:50.850Z,29.43
2023-03-04T11:35:29.317Z,27.73
2023-03-04T11:38:22.150Z,33.73
2023-03-04T11:40:52.067Z,26.63
2023-03-04T11:43:37.817Z,27.77
2023-03-04T11:46:05.775Z,27.97
2023-03-04T11:48:35.367Z,29.23
2023-03-04T11:51:20.679Z,29.80
2023-03-04T11:54:10.451Z,25.90
2023-03-04T11:56:39.571Z,26.37
2023-03-04T11:59:18.095Z,27.83
2023-03-04T12:01:44.571Z,24.03
2023-03-04T12:04:18.008Z,22.90
2023-03-04T12:06:52.876Z,21.08
2023-03-04T12:09:22.379Z,20.57
2023-03-04T12:12:07.688Z,25.63
2023-03-04T12:14:41.858Z,19.77
2023-03-04T12:17:27.312Z,22.17
2023-03-04T12:20:08.042Z,24.07
2023-03-04T12:23:03.009Z,20.50
2023-03-04T12:26:08.192Z,21.50
2023-03-04T12:29:09.983Z,20.07
2023-03-04T12:31:42.637Z,21.10
2023-03-04T12:34:09.248Z,19.77
2023-03-04T12:36:47.351Z,23.00
2023-03-04T12:39:32.728Z,26.90
2023-03-04T12:42:09.342Z,20.30
2023-03-04T12:45:01.128Z,22.83
2023-03-04T12:47:30.597Z,23.63
2023-03-04T12:50:04.655Z,19.43
2023-03-04T12:52:35.404Z,19.33
2023-03-04T12:55:10.118Z,18.23
2023-03-04T12:57:38.034Z,17.23
2023-03-04T13:00:17.114Z,18.17
2023-03-04T13:03:02.320Z,18.53
2023-03-04T13:05:38.194Z,18.57
2023-03-04T13:08:17.046Z,18.83
2023-03-04T13:10:44.563Z,18.20
2023-03-04T13:13:30.310Z,17.77
2023-03-04T13:16:05.046Z,17.43
2023-03-04T13:18:31.666Z,24.77
2023-03-04T13:21:19.033Z,18.07
2023-03-04T13:23:45.567Z,17.00
2023-03-04T13:26:21.593Z,18.80
2023-03-04T13:28:53.451Z,18.93
2023-03-04T13:31:27.026Z,19.87
2023-03-04T13:33:55.866Z,15.48
2023-03-04T13:36:28.549Z,16.57
2023-03-04T13:39:00.632Z,16.27
2023-03-04T13:41:47.192Z,19.10
2023-03-04T13:44:50.194Z,19.00
2023-03-04T13:47:19.103Z,18.70
2023-03-04T13:49:45.911Z,19.63
2023-03-04T13:52:30.729Z,19.87
2023-03-04T13:55:16.468Z,20.43
2023-03-04T13:57:49.159Z,18.53
2023-03-04T14:00:15.753Z,18.67
2023-03-04T14:02:42.277Z,19.53
2023-03-04T14:05:11.940Z,20.67
2023-03-04T14:07:39.530Z,19.57
2023-03-04T14:10:08.867Z,29.70
2023-03-04T14:12:36.871Z,20.33
2023-03-04T14:15:16.810Z,24.00
2023-03-04T14:17:48.701Z,25.83
2023-03-04T14:20:26.832Z,24.03
2023-03-04T14:22:53.927Z,23.50
2023-03-04T14:25:25.242Z,23.07
2023-03-04T14:28:02.432Z,26.27
2023-03-04T14:30:41.552Z,20.23
2023-03-04T14:33:14.848Z,21.13
2023-03-04T14:35:46.551Z,23.90
2023-03-04T14:38:19.291Z,23.63
2023-03-04T14:40:46.980Z,23.30
2023-03-04T14:43:14.064Z,25.03
2023-03-04T14:45:42.690Z,25.70
2023-03-04T14:48:10.038Z,26.77
2023-03-04T14:50:37.837Z,24.77
2023-03-04T14:53:07.501Z,22.87
2023-03-04T14:55:34.358Z,22.07
2023-03-04T14:58:19.901Z,23.20
2023-03-04T15:00:47.097Z,22.23
2023-03-04T15:03:24.106Z,24.13
2023-03-04T15:05:53.065Z,19.95
2023-03-04T15:08:24.881Z,24.67
2023-03-04T15:10:59.345Z,20.87
2023-03-04T15:13:52.478Z,20.42
2023-03-04T15:16:23.433Z,22.70
2023-03-04T15:18:57.943Z,25.53
2023-03-04T15:21:29.534Z,23.13
2023-03-04T15:23:56.261Z,20.53
2023-03-04T15:26:23.894Z,21.53
2023-03-04T15:28:50.487Z,23.07
2023-03-04T15:31:18.963Z,20.63
2023-03-04T15:33:46.525Z,22.77
2023-03-04T15:36:15.401Z,18.70
2023-03-04T15:38:43.972Z,25.60
2023-03-04T15:41:15.775Z,25.20
2023-03-04T15:43:42.290Z,21.17
2023-03-04T15:46:09.665Z,23.90
2023-03-04T15:48:36.205Z,18.50
2023-03-04T15:51:03.548Z,18.67
2023-03-04T15:53:33.158Z,17.85
2023-03-04T15:56:01.124Z,18.47
2023-03-04T15:58:28.773Z,20.33
2023-03-04T16:00:55.394Z,19.70
2023-03-04T16:03:23.069Z,19.63
2023-03-04T16:05:55.154Z,17.60
2023-03-04T16:08:22.498Z,18.52
2023-03-04T16:10:49.042Z,17.00
2023-03-04T16:13:17.262Z,18.98
2023-03-04T16:15:43.873Z,17.77
2023-03-04T16:18:12.129Z,20.77
2023-03-04T16:20:40.566Z,20.48
2023-03-04T16:23:11.018Z,19.30
2023-03-04T16:25:38.137Z,20.03
2023-03-04T16:28:05.372Z,21.73
2023-03-04T16:30:32.707Z,21.33
2023-03-04T16:32:59.796Z,15.27
2023-03-04T16:35:28.247Z,19.00
2023-03-04T16:37:54.763Z,15.35
2023-03-04T16:40:24.935Z,14.37
2023-03-04T16:42:51.510Z,17.75
2023-03-04T16:45:23.078Z,25.17
2023-03-04T16:47:50.259Z,18.87
2023-03-04T16:50:18.364Z,20.83
2023-03-04T16:52:46.149Z,14.53
2023-03-04T16:55:20.175Z,9.63
2023-03-04T16:57:47.245Z,12.80
2023-03-04T17:00:15.224Z,9.77
2023-03-04T17:02:42.677Z,9.07
2023-03-04T17:05:20.899Z,11.70
2023-03-04T17:07:48.194Z,10.97
2023-03-04T17:10:15.872Z,11.07
2023-03-04T17:12:43.825Z,9.03
2023-03-04T17:15:11.992Z,10.13
2023-03-04T17:17:38.998Z,8.23
2023-03-04T17:20:07.513Z,9.47
2023-03-04T17:22:34.911Z,7.00
2023-03-04T17:25:03.586Z,9.53
2023-03-04T17:27:31.204Z,10.20
2023-03-04T17:29:58.355Z,7.60
2023-03-04T17:32:28.048Z,9.87
2023-03-04T17:34:56.446Z,10.20
2023-03-04T17:37:23.847Z,6.90
2023-03-04T17:39:51.116Z,6.50
2023-03-04T17:42:19.154Z,5.10
2023-03-04T17:44:45.712Z,6.67
2023-03-04T17:47:12.986Z,6.70
2023-03-04T17:49:40.024Z,5.97
2023-03-04T17:52:06.558Z,7.23
2023-03-04T17:54:34.138Z,7.57
2023-03-04T17:57:01.445Z,8.67
2023-03-04T17:59:28.595Z,6.90
2023-03-04T18:01:55.618Z,6.53
2023-03-04T18:04:22.956Z,6.13
2023-03-04T18:06:49.940Z,11.20
2023-03-04T18:09:17.058Z,10.57
2023-03-04T18:11:44.214Z,7.30
2023-03-04T18:14:13.169Z,6.93
2023-03-04T18:16:40.802Z,8.17
2023-03-04T18:19:09.790Z,6.90
2023-03-04T18:21:36.982Z,9.60
2023-03-04T18:24:03.614Z,9.27
2023-03-04T18:26:30.957Z,8.73
2023-03-04T18:28:57.819Z,6.30
2023-03-04T18:31:29.481Z,10.67
2023-03-04T18:33:58.657Z,7.40
2023-03-04T18:36:25.321Z,5.77
2023-03-04T18:38:52.631Z,6.80
2023-03-04T18:41:19.151Z,8.23
2023-03-04T18:43:46.439Z,11.77
2023-03-04T18:46:30.977Z,10.23
2023-03-04T18:49:00.409Z,10.97
2023-03-04T18:51:27.550Z,11.97
2023-03-04T18:53:54.932Z,6.80
2023-03-04T18:56:44.929Z,7.47
2023-03-04T18:59:19.069Z,6.80
2023-03-04T19:01:46.387Z,8.73
2023-03-04T19:04:14.673Z,7.43
2023-03-04T19:06:41.296Z,7.90
2023-03-04T19:09:08.056Z,8.20
2023-03-04T19:11:35.038Z,11.40
2023-03-04T19:14:01.617Z,7.43
2023-03-04T19:16:28.904Z,9.93
2023-03-04T19:18:56.245Z,6.97
2023-03-04T19:21:23.317Z,10.67
2023-03-04T19:23:50.768Z,7.80
2023-03-04T19:26:17.345Z,9.30
2023-03-04T19:28:43.941Z,6.43
2023-03-04T19:31:11.661Z,10.13
2023-03-04T19:33:39.750Z,8.50
2023-03-04T19:36:07.892Z,11.43
2023-03-04T19:38:35.584Z,8.30
2023-03-04T19:41:10.578Z,10.33
2023-03-04T19:43:39.418Z,9.53
2023-03-04T19:46:09.808Z,9.20
2023-03-04T19:48:37.018Z,6.83
2023-03-04T19:51:05.945Z,8.10
2023-03-04T19:53:34.846Z,13.70
2023-03-04T19:56:02.147Z,8.03
2023-03-04T19:58:29.317Z,11.33
2023-03-04T20:00:56.764Z,23.13
2023-03-04T20:03:24.689Z,17.57
2023-03-04T20:05:51.313Z,20.57
2023-03-04T20:08:18.014Z,14.10
2023-03-04T20:10:44.615Z,11.20
2023-03-04T20:13:11.129Z,12.03
2023-03-04T20:15:41.722Z,9.53
2023-03-04T20:18:08.721Z,26.03
2023-03-04T20:20:37.333Z,16.23
2023-03-04T20:23:04.974Z,14.37
2023-03-04T20:25:32.689Z,13.87
2023-03-04T20:28:00.095Z,11.60
2023-03-04T20:30:27.630Z,15.87
2023-03-04T20:32:54.133Z,10.20
2023-03-04T20:35:20.649Z,10.13
2023-03-04T20:37:47.348Z,14.03
2023-03-04T20:40:15.212Z,15.27
2023-03-04T20:42:42.620Z,15.73
2023-03-04T20:45:10.092Z,11.00
2023-03-04T20:47:39.554Z,14.67
2023-03-04T20:50:06.499Z,12.73
2023-03-04T20:52:33.797Z,12.27
2023-03-04T20:55:01.037Z,10.33
2023-03-04T20:57:29.282Z,8.87
2023-03-04T20:59:56.541Z,10.10
2023-03-04T21:02:23.966Z,12.53
2023-03-04T21:04:50.652Z,9.97
2023-03-04T21:07:18.071Z,12.40
2023-03-04T21:09:45.376Z,10.33
2023-03-04T21:12:12.499Z,8.57
2023-03-04T21:14:40.001Z,8.07
2023-03-04T21:17:07.246Z,4.80
2023-03-04T21:19:36.856Z,6.57
2023-03-04T21:22:04.443Z,6.33
2023-03-04T21:24:33.059Z,5.47
2023-03-04T21:27:02.172Z,6.87
2023-03-04T21:29:29.618Z,4.53
2023-03-04T21:31:56.878Z,6.13
2023-03-04T21:34:29.835Z,7.13
2023-03-04T21:36:56.550Z,4.97
2023-03-04T21:39:24.749Z,2.77
2023-03-04T21:41:51.878Z,4.40
2023-03-04T21:44:28.677Z,5.10
2023-03-04T21:47:00.208Z,5.03
2023-03-04T21:49:27.430Z,4.80
2023-03-04T21:51:54.601Z,4.47
2023-03-04T21:54:21.609Z,5.47
2023-03-04T21:56:48.259Z,4.03
2023-03-04T21:59:17.861Z,5.87
2023-03-04T22:01:44.767Z,30.57
2023-03-04T22:04:11.430Z,27.70
2023-03-04T22:06:40.082Z,24.30
2023-03-04T22:09:07.995Z,22.40
2023-03-04T22:11:35.227Z,18.47
2023-03-04T22:14:02.438Z,19.80
2023-03-04T22:16:29.295Z,17.93
2023-03-04T22:18:56.058Z,13.87
2023-03-04T22:21:23.411Z,7.50
2023-03-04T22:23:50.225Z,7.13
2023-03-04T22:26:21.553Z,5.33
2023-03-04T22:28:48.159Z,5.77
2023-03-04T22:31:19.702Z,5.23
2023-03-04T22:33:47.058Z,2.87
2023-03-04T22:36:15.080Z,3.90
2023-03-04T22:38:41.712Z,4.17
2023-03-04T22:41:18.990Z,3.03
2023-03-04T22:43:46.311Z,5.40
2023-03-04T22:46:18.372Z,6.37
2023-03-04T22:48:45.355Z,3.53
2023-03-04T22:51:13.119Z,12.70
2023-03-04T22:53:41.334Z,26.30
2023-03-04T22:56:08.655Z,27.03
2023-03-04T22:58:35.734Z,60.50
2023-03-04T23:01:04.210Z,83.60
2023-03-04T23:03:31.576Z,100.50
2023-03-04T23:06:03.294Z,109.57
2023-03-04T23:08:30.479Z,105.40
2023-03-04T23:10:57.452Z,90.87
2023-03-04T23:13:24.962Z,75.13
2023-03-04T23:15:52.035Z,127.20
2023-03-04T23:18:19.224Z,121.93
2023-03-04T23:20:46.428Z,127.57
2023-03-04T23:23:13.520Z,107.27
2023-03-04T23:25:40.621Z,103.73
2023-03-04T23:28:07.876Z,144.60
2023-03-04T23:30:35.690Z,202.03
2023-03-04T23:33:02.927Z,162.27
2023-03-04T23:35:30.626Z,93.20
2023-03-04T23:37:57.871Z,73.90
2023-03-04T23:40:25.241Z,46.97
2023-03-04T23:42:52.522Z,21.63
2023-03-04T23:45:19.650Z,17.47
2023-03-04T23:47:46.850Z,15.13
2023-03-04T23:50:16.297Z,16.90
2023-03-04T23:52:43.973Z,16.83
2023-03-04T23:55:15.477Z,11.03
2023-03-04T23:57:42.683Z,9.77
